createdAt,value
2019-06-08T00:01:22.816Z,99534.48
2019-06-08T00:03:51.228Z,99538.49
2019-06-08T00:06:19.021Z,99539.65
2019-06-08T00:08:46.887Z,99546.95
2019-06-08T00:11:15.057Z,99549.66
2019-06-08T00:13:42.911Z,99551.49
2019-06-08T00:16:10.694Z,99562.51
2019-06-08T00:18:38.440Z,99557.78
2019-06-08T00:21:06.258Z,99549.50
2019-06-08T00:23:34.065Z,99542.01
2019-06-08T00:26:01.853Z,99556.63
2019-06-08T00:28:29.617Z,99568.06
2019-06-08T00:30:57.405Z,99564.43
2019-06-08T00:33:25.183Z,99573.77
2019-06-08T00:35:52.982Z,99572.61
2019-06-08T00:38:21.064Z,99565.74
2019-06-08T00:40:51.852Z,99551.37
2019-06-08T00:43:19.654Z,99536.64
2019-06-08T00:45:47.427Z,99546.77
2019-06-08T00:48:16.651Z,99545.41
2019-06-08T00:50:44.749Z,99559.51
2019-06-08T00:53:12.539Z,99560.83
2019-06-08T00:55:40.284Z,99549.75
2019-06-08T00:58:08.255Z,99535.68
2019-06-08T01:00:35.992Z,99530.86
2019-06-08T01:03:03.781Z,99530.55
2019-06-08T01:05:31.514Z,99536.13
2019-06-08T01:07:59.592Z,99546.19
2019-06-08T01:10:27.628Z,99560.40
2019-06-08T01:12:55.306Z,99560.50
2019-06-08T01:15:29.157Z,99566.13
2019-06-08T01:18:02.086Z,99577.77
2019-06-08T01:20:23.544Z,99571.67
2019-06-08T01:22:51.326Z,99569.00
2019-06-08T01:25:20.198Z,99572.06
2019-06-08T01:27:48.446Z,99581.50
2019-06-08T01:30:17.120Z,99587.88
2019-06-08T01:32:44.870Z,99585.73
2019-06-08T01:35:12.680Z,99590.42
2019-06-08T01:37:40.809Z,99585.92
2019-06-08T01:40:10.689Z,99586.28
2019-06-08T01:42:38.574Z,99575.06
2019-06-08T01:45:06.634Z,99582.95
2019-06-08T01:47:34.544Z,99576.84
2019-06-08T01:50:02.427Z,99580.23
2019-06-08T01:52:30.939Z,99587.63
2019-06-08T01:54:58.737Z,99593.33
2019-06-08T01:57:27.185Z,99605.81
2019-06-08T01:59:55.089Z,99603.59
2019-06-08T02:02:23.806Z,99593.28
2019-06-08T02:04:51.659Z,99596.89
2019-06-08T02:07:19.442Z,99606.24
2019-06-08T02:09:47.168Z,99602.92
2019-06-08T02:12:14.972Z,99610.11
2019-06-08T02:14:42.708Z,99604.44
2019-06-08T02:17:10.485Z,99603.40
2019-06-08T02:19:38.793Z,99605.20
2019-06-08T02:22:06.629Z,99605.94
2019-06-08T02:24:35.475Z,99606.14
2019-06-08T02:27:03.270Z,99616.17
2019-06-08T02:29:31.627Z,99629.75
2019-06-08T02:31:59.560Z,99639.66
2019-06-08T02:34:28.346Z,99647.34
2019-06-08T02:36:56.772Z,99657.87
2019-06-08T02:39:24.613Z,99670.28
2019-06-08T02:41:52.434Z,99662.67
2019-06-08T02:44:20.155Z,99659.53
2019-06-08T02:46:47.979Z,99656.95
2019-06-08T02:49:15.795Z,99660.50
2019-06-08T02:51:44.298Z,99674.88
2019-06-08T02:54:12.614Z,99678.16
2019-06-08T02:56:42.790Z,99682.66
2019-06-08T02:59:14.009Z,99693.19
2019-06-08T03:01:42.513Z,99670.20
2019-06-08T03:04:12.305Z,99666.61
2019-06-08T03:06:42.889Z,99656.77
2019-06-08T03:09:10.788Z,99674.11
2019-06-08T03:11:41.215Z,99665.11
2019-06-08T03:14:09.194Z,99670.23
2019-06-08T03:16:39.021Z,99641.14
2019-06-08T03:19:21.050Z,99630.34
2019-06-08T03:21:38.310Z,99645.55
2019-06-08T03:24:06.225Z,99656.72
2019-06-08T03:26:34.331Z,99659.98
2019-06-08T03:29:02.407Z,99651.88
2019-06-08T03:31:30.181Z,99663.17
2019-06-08T03:33:57.970Z,99659.67
2019-06-08T03:36:25.756Z,99655.73
2019-06-08T03:38:53.558Z,99667.97
2019-06-08T03:41:21.288Z,99684.12
2019-06-08T03:43:49.031Z,99690.87
2019-06-08T03:46:16.830Z,99704.98
2019-06-08T03:48:46.491Z,99710.10
2019-06-08T03:51:14.372Z,99703.23
2019-06-08T03:53:44.432Z,99690.94
2019-06-08T03:56:11.797Z,99682.88
2019-06-08T03:58:47.569Z,99685.65
2019-06-08T04:01:14.672Z,99686.28
2019-06-08T04:03:43.858Z,99698.72
2019-06-08T04:06:12.175Z,99704.53
2019-06-08T04:08:40.954Z,99719.22
2019-06-08T04:11:09.878Z,99726.01
2019-06-08T04:13:37.805Z,99710.44
2019-06-08T04:16:05.615Z,99723.01
2019-06-08T04:18:33.507Z,99733.09
2019-06-08T04:21:01.307Z,99738.39
2019-06-08T04:23:29.066Z,99729.45
2019-06-08T04:25:56.878Z,99714.61
2019-06-08T04:28:24.708Z,99719.20
2019-06-08T04:30:52.650Z,99732.25
2019-06-08T04:33:20.397Z,99712.47
2019-06-08T04:35:48.190Z,99722.95
2019-06-08T04:38:16.057Z,99754.18
2019-06-08T04:40:45.693Z,99755.16
2019-06-08T04:43:13.543Z,99747.66
2019-06-08T04:45:43.007Z,99756.40
2019-06-08T04:48:11.207Z,99772.30
2019-06-08T04:50:40.744Z,99778.05
2019-06-08T04:53:08.629Z,99764.95
2019-06-08T04:55:36.437Z,99759.08
2019-06-08T04:58:04.329Z,99775.47
2019-06-08T05:00:32.129Z,99785.72
2019-06-08T05:02:59.854Z,99767.18
2019-06-08T05:05:27.626Z,99792.42
2019-06-08T05:07:55.449Z,99798.25
2019-06-08T05:10:23.263Z,99787.41
2019-06-08T05:12:51.149Z,99785.25
2019-06-08T05:15:18.850Z,99798.41
2019-06-08T05:17:47.528Z,99804.17
2019-06-08T05:20:15.629Z,99809.19
2019-06-08T05:22:43.674Z,99813.06
2019-06-08T05:25:11.663Z,99811.05
2019-06-08T05:27:39.468Z,99813.72
2019-06-08T05:30:08.764Z,99811.55
2019-06-08T05:32:36.860Z,99823.47
2019-06-08T05:35:05.238Z,99824.91
2019-06-08T05:37:33.036Z,99821.38
2019-06-08T05:40:00.837Z,99829.03
2019-06-08T05:42:28.700Z,99825.49
2019-06-08T05:44:56.478Z,99827.76
2019-06-08T05:47:24.308Z,99830.00
2019-06-08T05:49:52.085Z,99832.99
2019-06-08T05:52:19.860Z,99836.06
2019-06-08T05:54:47.950Z,99842.59
2019-06-08T05:57:15.734Z,99837.11
2019-06-08T05:59:44.082Z,99848.83
2019-06-08T06:02:12.186Z,99846.63
2019-06-08T06:04:40.855Z,99848.14
2019-06-08T06:07:08.855Z,99854.95
2019-06-08T06:09:36.654Z,99855.48
2019-06-08T06:12:05.090Z,99862.63
2019-06-08T06:14:32.806Z,99867.08
2019-06-08T06:17:00.619Z,99865.82
2019-06-08T06:19:28.579Z,99859.01
2019-06-08T06:21:56.424Z,99859.38
2019-06-08T06:24:24.170Z,99873.54
2019-06-08T06:26:51.995Z,99875.84
2019-06-08T06:29:20.025Z,99872.09
2019-06-08T06:31:47.851Z,99946.67
2019-06-08T06:34:15.679Z,99853.11
2019-06-08T06:36:43.877Z,99870.80
2019-06-08T06:39:21.848Z,99872.25
2019-06-08T06:41:49.961Z,99883.40
2019-06-08T06:44:17.777Z,99877.69
2019-06-08T06:46:46.138Z,99935.48
2019-06-08T06:49:14.361Z,99927.95
2019-06-08T06:51:42.336Z,99937.02
2019-06-08T06:54:10.128Z,99905.34
2019-06-08T06:56:37.944Z,99861.24
2019-06-08T06:59:06.081Z,99932.12
2019-06-08T07:01:33.826Z,99882.62
2019-06-08T07:04:01.818Z,99898.50
2019-06-08T07:06:29.530Z,99917.19
2019-06-08T07:08:57.452Z,99921.98
2019-06-08T07:11:25.231Z,99868.68
2019-06-08T07:13:53.099Z,99922.64
2019-06-08T07:16:21.098Z,99913.04
2019-06-08T07:18:50.143Z,99914.34
2019-06-08T07:21:18.124Z,99904.05
2019-06-08T07:23:46.282Z,99899.33
2019-06-08T07:26:14.072Z,99911.40
2019-06-08T07:28:41.912Z,99907.95
2019-06-08T07:31:09.710Z,99853.19
2019-06-08T07:33:37.469Z,99941.01
2019-06-08T07:36:05.348Z,99868.92
2019-06-08T07:38:33.163Z,99956.34
2019-06-08T07:41:01.879Z,99946.46
2019-06-08T07:43:29.727Z,99948.09
2019-06-08T07:45:58.457Z,99906.66
2019-06-08T07:48:26.577Z,99937.83
2019-06-08T07:50:54.518Z,99954.76
2019-06-08T07:53:22.223Z,99957.59
2019-06-08T07:55:50.145Z,99970.43
2019-06-08T07:58:19.220Z,99952.52
2019-06-08T08:00:47.008Z,99947.70
2019-06-08T08:03:14.914Z,99940.78
2019-06-08T08:05:42.742Z,99952.30
2019-06-08T08:08:20.867Z,99940.94
2019-06-08T08:10:48.945Z,99941.02
2019-06-08T08:13:16.738Z,99892.84
2019-06-08T08:15:44.559Z,99964.65
2019-06-08T08:18:12.381Z,99899.18
2019-06-08T08:20:40.101Z,99887.69
2019-06-08T08:23:09.230Z,99887.92
2019-06-08T08:25:37.870Z,99903.77
2019-06-08T08:28:11.188Z,99983.36
2019-06-08T08:30:38.937Z,99977.09
2019-06-08T08:33:07.832Z,99962.87
2019-06-08T08:35:37.955Z,99917.58
2019-06-08T08:38:07.527Z,99915.48
2019-06-08T08:40:35.261Z,99928.67
2019-06-08T08:43:03.022Z,99936.13
2019-06-08T08:45:30.808Z,99959.00
2019-06-08T08:48:14.866Z,99990.28
2019-06-08T08:50:28.404Z,99985.16
2019-06-08T08:52:58.980Z,99943.52
2019-06-08T08:55:27.962Z,99982.80
2019-06-08T08:57:57.055Z,99917.58
2019-06-08T09:00:28.121Z,99967.08
2019-06-08T09:03:15.973Z,99977.27
2019-06-08T09:05:27.996Z,99975.16
2019-06-08T09:07:56.388Z,99967.34
2019-06-08T09:10:25.173Z,99974.44
2019-06-08T09:12:53.841Z,99971.86
2019-06-08T09:15:22.754Z,99968.94
2019-06-08T09:17:52.171Z,99938.13
2019-06-08T09:20:20.263Z,99978.22
2019-06-08T09:22:56.611Z,99966.69
2019-06-08T09:25:18.327Z,99970.14
2019-06-08T09:27:48.181Z,99972.99
2019-06-08T09:30:18.231Z,99958.22
2019-06-08T09:32:47.744Z,99955.67
2019-06-08T09:35:18.754Z,99972.06
2019-06-08T09:37:48.395Z,99975.08
2019-06-08T09:40:17.665Z,99975.72
2019-06-08T09:42:45.562Z,99973.77
2019-06-08T09:45:13.511Z,99984.94
2019-06-08T09:47:47.829Z,99989.33
2019-06-08T09:50:18.448Z,99932.77
2019-06-08T09:52:47.874Z,99969.94
2019-06-08T09:55:17.936Z,99988.05
2019-06-08T09:57:45.629Z,99953.47
2019-06-08T10:00:18.329Z,99957.16
2019-06-08T10:02:43.746Z,99979.16
2019-06-08T10:05:11.602Z,99981.02
2019-06-08T10:07:39.432Z,99945.72
2019-06-08T10:10:09.827Z,99975.91
2019-06-08T10:12:40.948Z,99937.69
2019-06-08T10:15:08.267Z,99978.48
2019-06-08T10:17:37.739Z,99977.64
2019-06-08T10:20:09.987Z,99971.14
2019-06-08T10:22:39.224Z,99973.63
2019-06-08T10:25:10.856Z,99964.50
2019-06-08T10:27:38.602Z,99954.31
2019-06-08T10:30:09.924Z,99960.03
2019-06-08T10:32:38.284Z,99961.23
2019-06-08T10:35:08.049Z,99979.05
2019-06-08T10:37:38.381Z,99975.34
2019-06-08T10:40:08.395Z,99968.52
2019-06-08T10:42:39.849Z,99961.89
2019-06-08T10:45:10.425Z,99965.55
2019-06-08T10:47:37.947Z,99977.18
2019-06-08T10:50:12.749Z,100007.30
2019-06-08T10:52:39.095Z,99972.68
2019-06-08T10:55:10.378Z,99988.22
2019-06-08T10:57:37.599Z,99992.42
2019-06-08T11:00:13.645Z,100020.31
2019-06-08T11:02:37.586Z,99985.39
2019-06-08T11:05:11.711Z,99996.70
2019-06-08T11:07:38.062Z,100003.47
2019-06-08T11:10:08.919Z,99988.80
2019-06-08T11:12:37.683Z,99999.69
2019-06-08T11:15:09.257Z,100006.45
2019-06-08T11:17:37.754Z,100005.63
2019-06-08T11:20:07.434Z,99994.14
2019-06-08T11:22:35.094Z,100006.14
2019-06-08T11:25:04.418Z,100002.68
2019-06-08T11:27:33.143Z,100006.48
2019-06-08T11:30:05.884Z,100025.73
2019-06-08T11:32:30.853Z,100009.21
2019-06-08T11:34:59.885Z,100016.55
2019-06-08T11:37:38.757Z,100005.52
2019-06-08T11:40:18.060Z,100005.19
2019-06-08T11:42:48.391Z,99999.28
2019-06-08T11:45:17.762Z,100007.48
2019-06-08T11:47:48.549Z,100002.97
2019-06-08T11:50:35.188Z,100021.13
2019-06-08T11:53:04.035Z,100021.42
2019-06-08T11:55:32.691Z,99998.31
2019-06-08T11:58:02.929Z,99996.39
2019-06-08T12:01:02.884Z,100004.61
2019-06-08T12:03:30.535Z,100003.53
2019-06-08T12:05:58.930Z,100010.83
2019-06-08T12:08:28.454Z,100018.00
2019-06-08T12:11:01.255Z,99999.98
2019-06-08T12:13:27.813Z,100013.22
2019-06-08T12:15:55.833Z,99996.53
2019-06-08T12:18:23.757Z,100008.42
2019-06-08T12:20:51.496Z,100002.61
2019-06-08T12:23:19.351Z,99989.24
2019-06-08T12:25:47.075Z,99993.95
2019-06-08T12:28:14.912Z,99997.68
2019-06-08T12:30:42.700Z,100004.75
2019-06-08T12:33:12.417Z,100007.76
2019-06-08T12:35:40.161Z,100012.59
2019-06-08T12:38:09.574Z,100015.17
2019-06-08T12:40:37.864Z,99998.02
2019-06-08T12:43:09.670Z,100001.71
2019-06-08T12:45:38.089Z,100011.80
2019-06-08T12:48:08.849Z,100028.17
2019-06-08T12:50:38.544Z,100014.23
2019-06-08T12:53:11.234Z,100017.13
2019-06-08T12:55:37.546Z,100016.72
2019-06-08T12:58:05.268Z,100018.55
2019-06-08T13:00:33.105Z,100017.42
2019-06-08T13:03:00.891Z,100018.70
2019-06-08T13:05:29.037Z,100012.55
2019-06-08T13:07:58.926Z,100010.67
2019-06-08T13:10:27.730Z,100015.50
2019-06-08T13:12:58.191Z,100008.59
2019-06-08T13:15:27.807Z,100013.23
2019-06-08T13:17:58.471Z,100016.82
2019-06-08T13:20:28.234Z,100014.50
2019-06-08T13:22:57.550Z,100011.70
2019-06-08T13:25:37.331Z,100016.40
2019-06-08T13:27:55.350Z,100009.40
2019-06-08T13:30:26.012Z,100010.27
2019-06-08T13:32:52.860Z,100012.97
2019-06-08T13:35:22.390Z,100027.11
2019-06-08T13:37:57.468Z,100024.70
2019-06-08T13:40:25.108Z,100018.50
2019-06-08T13:42:52.969Z,100032.51
2019-06-08T13:45:23.153Z,100027.24
2019-06-08T13:47:50.616Z,100019.95
2019-06-08T13:50:20.901Z,100013.38
2019-06-08T13:52:48.892Z,100024.42
2019-06-08T13:55:36.312Z,100023.28
2019-06-08T13:57:49.032Z,100006.11
2019-06-08T14:00:21.151Z,100016.63
2019-06-08T14:02:48.623Z,100008.65
2019-06-08T14:05:30.534Z,100011.48
2019-06-08T14:07:58.987Z,100015.51
2019-06-08T14:10:38.515Z,100006.10
2019-06-08T14:13:06.578Z,100014.52
2019-06-08T14:15:34.546Z,100008.84
2019-06-08T14:18:03.016Z,100012.81
2019-06-08T14:20:34.385Z,100015.48
2019-06-08T14:23:00.588Z,100004.38
2019-06-08T14:25:30.063Z,100004.84
2019-06-08T14:28:08.174Z,100006.70
2019-06-08T14:30:37.706Z,100008.88
2019-06-08T14:33:08.317Z,99999.48
2019-06-08T14:35:35.708Z,100011.47
2019-06-08T14:38:04.080Z,100008.28
2019-06-08T14:40:33.194Z,99999.77
2019-06-08T14:43:01.457Z,100003.88
2019-06-08T14:45:30.951Z,100010.19
2019-06-08T14:47:59.154Z,100013.34
2019-06-08T14:50:29.286Z,100011.08
2019-06-08T14:52:58.932Z,100012.44
2019-06-08T14:55:32.116Z,100018.42
2019-06-08T14:57:58.064Z,100021.53
2019-06-08T15:00:27.520Z,100035.11
2019-06-08T15:02:55.672Z,100025.65
2019-06-08T15:05:23.582Z,100031.06
2019-06-08T15:07:58.163Z,100023.08
2019-06-08T15:10:29.395Z,100021.61
2019-06-08T15:12:57.957Z,100029.11
2019-06-08T15:15:28.864Z,100016.48
2019-06-08T15:17:57.941Z,100018.81
2019-06-08T15:20:26.271Z,100014.66
2019-06-08T15:22:54.186Z,100023.48
2019-06-08T15:25:22.543Z,100020.27
2019-06-08T15:27:50.463Z,100029.71
2019-06-08T15:30:18.531Z,100028.80
2019-06-08T15:32:48.069Z,100026.50
2019-06-08T15:35:18.062Z,100022.20
2019-06-08T15:37:47.710Z,100022.06
2019-06-08T15:40:17.692Z,100018.19
2019-06-08T15:42:47.830Z,100027.28
2019-06-08T15:45:18.278Z,100026.63
2019-06-08T15:47:48.565Z,100024.44
2019-06-08T15:50:17.949Z,100013.25
2019-06-08T15:52:47.982Z,100013.25
2019-06-08T15:55:15.613Z,100007.11
2019-06-08T15:57:45.259Z,100007.17
2019-06-08T16:00:13.618Z,100009.58
2019-06-08T16:02:41.384Z,100000.96
2019-06-08T16:05:09.146Z,100003.88
2019-06-08T16:07:37.036Z,100011.76
2019-06-08T16:10:05.787Z,100007.08
2019-06-08T16:12:35.097Z,100015.27
2019-06-08T16:15:03.848Z,100012.47
2019-06-08T16:17:31.678Z,100014.63
2019-06-08T16:19:59.736Z,100016.09
2019-06-08T16:22:27.704Z,100018.21
2019-06-08T16:24:55.806Z,100023.09
2019-06-08T16:27:23.635Z,100018.94
2019-06-08T16:29:51.364Z,100016.49
2019-06-08T16:32:19.303Z,100011.23
2019-06-08T16:34:47.177Z,100009.92
2019-06-08T16:37:15.091Z,100018.32
2019-06-08T16:39:42.905Z,100021.42
2019-06-08T16:42:10.732Z,100022.70
2019-06-08T16:44:38.694Z,100022.94
2019-06-08T16:47:06.579Z,100021.25
2019-06-08T16:49:35.351Z,100026.05
2019-06-08T16:52:03.515Z,100024.00
2019-06-08T16:54:32.719Z,100028.28
2019-06-08T16:57:10.166Z,100028.80
2019-06-08T16:59:30.495Z,100026.23
2019-06-08T17:01:58.251Z,100031.16
2019-06-08T17:04:26.036Z,100032.12
2019-06-08T17:06:53.915Z,100037.88
2019-06-08T17:09:21.857Z,100035.02
2019-06-08T17:11:52.500Z,100031.13
2019-06-08T17:14:19.411Z,100034.52
2019-06-08T17:16:47.290Z,100034.53
2019-06-08T17:19:15.124Z,100035.56
2019-06-08T17:21:42.937Z,100032.77
2019-06-08T17:24:10.718Z,100034.53
2019-06-08T17:26:38.787Z,100032.23
2019-06-08T17:29:07.078Z,100039.20
2019-06-08T17:31:35.213Z,100034.88
2019-06-08T17:34:03.819Z,100036.94
2019-06-08T17:36:31.935Z,100037.09
2019-06-08T17:39:06.367Z,100034.23
2019-06-08T17:41:34.237Z,100035.42
2019-06-08T17:44:01.992Z,100042.94
2019-06-08T17:46:29.866Z,100039.69
2019-06-08T17:48:57.889Z,100042.81
2019-06-08T17:51:26.085Z,100043.02
2019-06-08T17:53:53.963Z,100049.52
2019-06-08T17:56:21.800Z,100047.56
2019-06-08T17:58:49.829Z,100046.41
2019-06-08T18:01:17.583Z,100045.08
2019-06-08T18:03:45.378Z,100046.16
2019-06-08T18:06:13.394Z,100048.96
2019-06-08T18:08:48.016Z,100057.05
2019-06-08T18:11:17.331Z,100059.44
2019-06-08T18:13:48.219Z,100060.87
2019-06-08T18:16:17.468Z,100063.87
2019-06-08T18:18:50.795Z,100064.61
2019-06-08T18:21:18.577Z,100065.56
2019-06-08T18:23:48.195Z,100062.83
2019-06-08T18:26:17.257Z,100067.57
2019-06-08T18:28:48.360Z,100070.59
2019-06-08T18:31:15.405Z,100076.20
2019-06-08T18:33:45.261Z,100067.23
2019-06-08T18:36:12.935Z,100068.67
2019-06-08T18:38:42.295Z,100072.59
2019-06-08T18:41:11.181Z,100069.93
2019-06-08T18:43:40.040Z,100069.13
2019-06-08T18:46:08.772Z,100069.95
2019-06-08T18:48:39.811Z,100071.08
2019-06-08T18:51:08.316Z,100078.23
2019-06-08T18:53:54.370Z,100079.34
2019-06-08T18:56:08.046Z,100080.33
2019-06-08T18:58:35.714Z,100080.30
2019-06-08T19:01:03.508Z,100087.48
2019-06-08T19:03:31.328Z,100095.89
2019-06-08T19:05:59.588Z,100090.98
2019-06-08T19:08:28.148Z,100097.04
2019-06-08T19:10:57.338Z,100099.92
2019-06-08T19:13:27.120Z,100102.16
2019-06-08T19:15:54.943Z,100101.31
2019-06-08T19:18:22.755Z,100105.97
2019-06-08T19:20:52.992Z,100109.89
2019-06-08T19:23:21.442Z,100113.47
2019-06-08T19:25:49.679Z,100118.23
2019-06-08T19:28:27.226Z,100117.01
2019-06-08T19:30:51.375Z,100120.45
2019-06-08T19:33:18.691Z,100126.50
2019-06-08T19:35:52.889Z,100130.77
2019-06-08T19:38:18.120Z,100132.83
2019-06-08T19:40:48.189Z,100135.91
2019-06-08T19:43:18.268Z,100140.56
2019-06-08T19:45:50.331Z,100147.30
2019-06-08T19:48:17.561Z,100146.59
2019-06-08T19:50:47.304Z,100156.45
2019-06-08T19:53:18.292Z,100162.53
2019-06-08T19:55:52.037Z,100168.27
2019-06-08T19:58:18.048Z,100176.75
2019-06-08T20:00:52.296Z,100176.26
2019-06-08T20:03:17.790Z,100183.56
2019-06-08T20:05:50.142Z,100181.41
2019-06-08T20:08:17.531Z,100184.04
2019-06-08T20:10:48.066Z,100186.86
2019-06-08T20:13:16.492Z,100182.06
2019-06-08T20:15:50.445Z,100193.13
2019-06-08T20:18:17.227Z,100197.50
2019-06-08T20:20:46.841Z,100198.66
2019-06-08T20:23:17.996Z,100201.78
2019-06-08T20:25:48.609Z,100202.73
2019-06-08T20:28:17.328Z,100204.95
2019-06-08T20:30:46.668Z,100208.89
2019-06-08T20:33:17.543Z,100211.48
2019-06-08T20:35:45.613Z,100214.21
2019-06-08T20:38:14.595Z,100219.09
2019-06-08T20:40:43.951Z,100217.56
2019-06-08T20:43:12.110Z,100224.91
2019-06-08T20:45:39.936Z,100222.17
2019-06-08T20:48:07.773Z,100227.48
2019-06-08T20:50:37.671Z,100230.67
2019-06-08T20:53:05.253Z,100229.44
2019-06-08T20:55:33.022Z,100229.52
2019-06-08T20:58:01.074Z,100230.70
2019-06-08T21:00:28.857Z,100238.36
2019-06-08T21:03:02.836Z,100237.61
2019-06-08T21:05:27.829Z,100232.83
2019-06-08T21:07:58.893Z,100228.91
2019-06-08T21:10:27.941Z,100232.59
2019-06-08T21:12:56.296Z,100237.13
2019-06-08T21:15:27.373Z,100237.48
2019-06-08T21:17:55.374Z,100238.52
2019-06-08T21:20:23.225Z,100201.95
2019-06-08T21:22:53.898Z,100218.17
2019-06-08T21:25:20.707Z,100239.95
2019-06-08T21:27:51.041Z,100238.64
2019-06-08T21:30:24.144Z,100245.11
2019-06-08T21:32:51.726Z,100237.35
2019-06-08T21:35:18.487Z,100239.02
2019-06-08T21:37:50.668Z,100242.66
2019-06-08T21:40:17.662Z,100239.03
2019-06-08T21:42:48.859Z,100243.03
2019-06-08T21:45:15.593Z,100246.03
2019-06-08T21:47:43.348Z,100241.94
2019-06-08T21:50:11.220Z,100253.86
2019-06-08T21:52:39.090Z,100254.19
2019-06-08T21:55:07.428Z,100255.53
2019-06-08T21:57:37.085Z,100255.85
2019-06-08T22:00:27.145Z,100258.36
2019-06-08T22:02:37.598Z,100258.19
2019-06-08T22:05:08.046Z,100261.00
2019-06-08T22:07:37.661Z,100265.94
2019-06-08T22:10:07.509Z,100271.07
2019-06-08T22:12:39.856Z,100269.58
2019-06-08T22:15:07.534Z,100276.84
2019-06-08T22:17:38.105Z,100278.80
2019-06-08T22:20:07.990Z,100277.50
2019-06-08T22:22:37.882Z,100278.30
2019-06-08T22:25:08.239Z,100277.33
2019-06-08T22:27:38.149Z,100278.14
2019-06-08T22:30:11.585Z,100280.61
2019-06-08T22:32:55.703Z,100282.38
2019-06-08T22:35:23.478Z,100290.14
2019-06-08T22:37:51.889Z,100287.16
2019-06-08T22:40:21.631Z,100287.47
2019-06-08T22:42:49.428Z,100292.11
2019-06-08T22:45:17.656Z,100291.91
2019-06-08T22:47:47.643Z,100291.42
2019-06-08T22:50:18.399Z,100296.52
2019-06-08T22:52:47.678Z,100303.09
2019-06-08T22:55:18.352Z,100291.22
2019-06-08T22:57:45.118Z,100292.17
2019-06-08T23:00:19.947Z,100294.63
2019-06-08T23:02:45.397Z,100304.34
2019-06-08T23:05:13.850Z,100308.16
2019-06-08T23:07:41.600Z,100301.54
2019-06-08T23:10:10.394Z,100299.55
2019-06-08T23:12:38.492Z,100296.55
2019-06-08T23:15:07.948Z,100294.22
2019-06-08T23:17:38.319Z,100300.81
2019-06-08T23:20:08.645Z,100300.78
2019-06-08T23:22:38.344Z,100299.11
2019-06-08T23:25:08.929Z,100300.07
2019-06-08T23:27:37.871Z,100293.59
2019-06-08T23:30:09.959Z,100289.94
2019-06-08T23:32:38.658Z,100288.70
2019-06-08T23:35:08.873Z,100289.14
2019-06-08T23:37:37.396Z,100294.53
2019-06-08T23:40:07.619Z,100298.60
2019-06-08T23:42:38.061Z,100298.05
2019-06-08T23:45:06.014Z,100292.12
2019-06-08T23:47:35.319Z,100296.89
2019-06-08T23:50:05.186Z,100295.22
2019-06-08T23:52:33.416Z,100300.78
2019-06-08T23:55:02.622Z,100293.66
2019-06-08T23:57:30.872Z,100298.74
